sensor_id;sensor_type;location;lat;lon;timestamp;P1;durP1;ratioP1;P2;durP2;ratioP2
3817;SDS011;1924;48.078;11.516;2024-01-25T00:00:52;30.07;;;0.80;;
3817;SDS011;1924;48.078;11.516;2024-01-25T00:03:18;29.83;;;0.80;;
3817;SDS011;1924;48.078;11.516;2024-01-25T00:05:45;30.10;;;0.80;;
3817;SDS011;1924;48.078;11.516;2024-01-25T00:08:12;30.03;;;0.80;;
3817;SDS011;1924;48.078;11.516;2024-01-25T00:10:40;30.07;;;0.80;;
3817;SDS011;1924;48.078;11.516;2024-01-25T00:13:09;29.97;;;0.80;;
3817;SDS011;1924;48.078;11.516;2024-01-25T00:15:35;30.10;;;0.80;;
3817;SDS011;1924;48.078;11.516;2024-01-25T00:18:02;30.00;;;0.80;;
3817;SDS011;1924;48.078;11.516;2024-01-25T00:20:29;30.07;;;0.80;;
3817;SDS011;1924;48.078;11.516;2024-01-25T00:22:56;30.00;;;0.80;;
3817;SDS011;1924;48.078;11.516;2024-01-25T00:25:23;29.77;;;0.80;;
3817;SDS011;1924;48.078;11.516;2024-01-25T00:27:50;30.10;;;0.80;;
3817;SDS011;1924;48.078;11.516;2024-01-25T00:30:18;29.70;;;0.80;;
3817;SDS011;1924;48.078;11.516;2024-01-25T00:32:45;30.00;;;0.80;;
3817;SDS011;1924;48.078;11.516;2024-01-25T00:35:12;29.80;;;0.80;;
3817;SDS011;1924;48.078;11.516;2024-01-25T00:37:40;30.00;;;0.80;;
3817;SDS011;1924;48.078;11.516;2024-01-25T00:40:07;30.00;;;0.80;;
3817;SDS011;1924;48.078;11.516;2024-01-25T00:42:36;29.77;;;0.80;;
3817;SDS011;1924;48.078;11.516;2024-01-25T00:45:07;29.87;;;0.80;;
3817;SDS011;1924;48.078;11.516;2024-01-25T00:47:37;29.90;;;0.80;;
3817;SDS011;1924;48.078;11.516;2024-01-25T00:50:04;29.83;;;0.80;;
3817;SDS011;1924;48.078;11.516;2024-01-25T00:52:32;29.50;;;0.80;;
3817;SDS011;1924;48.078;11.516;2024-01-25T00:55:00;29.73;;;0.80;;
3817;SDS011;1924;48.078;11.516;2024-01-25T00:57:28;29.90;;;0.80;;
3817;SDS011;1924;48.078;11.516;2024-01-25T00:59:55;29.80;;;0.80;;
3817;SDS011;1924;48.078;11.516;2024-01-25T01:02:22;29.87;;;0.80;;
3817;SDS011;1924;48.078;11.516;2024-01-25T01:04:51;30.00;;;0.90;;
3817;SDS011;1924;48.078;11.516;2024-01-25T01:07:19;29.73;;;0.80;;
3817;SDS011;1924;48.078;11.516;2024-01-25T01:09:46;30.00;;;0.80;;
3817;SDS011;1924;48.078;11.516;2024-01-25T01:12:12;29.80;;;0.80;;
3817;SDS011;1924;48.078;11.516;2024-01-25T01:14:39;29.67;;;0.80;;
3817;SDS011;1924;48.078;11.516;2024-01-25T01:17:06;29.87;;;0.80;;
3817;SDS011;1924;48.078;11.516;2024-01-25T01:19:33;29.90;;;0.90;;
3817;SDS011;1924;48.078;11.516;2024-01-25T01:22:01;29.90;;;0.80;;
3817;SDS011;1924;48.078;11.516;2024-01-25T01:24:28;29.90;;;0.90;;
3817;SDS011;1924;48.078;11.516;2024-01-25T01:26:55;29.80;;;0.80;;
3817;SDS011;1924;48.078;11.516;2024-01-25T01:29:21;29.70;;;0.80;;
3817;SDS011;1924;48.078;11.516;2024-01-25T01:31:48;29.90;;;0.80;;
3817;SDS011;1924;48.078;11.516;2024-01-25T01:34:15;29.80;;;0.80;;
3817;SDS011;1924;48.078;11.516;2024-01-25T01:36:42;29.87;;;0.80;;
3817;SDS011;1924;48.078;11.516;2024-01-25T01:39:10;30.00;;;0.80;;
3817;SDS011;1924;48.078;11.516;2024-01-25T01:41:37;29.90;;;0.80;;
3817;SDS011;1924;48.078;11.516;2024-01-25T01:44:04;30.00;;;0.80;;
3817;SDS011;1924;48.078;11.516;2024-01-25T01:46:32;30.00;;;0.80;;
3817;SDS011;1924;48.078;11.516;2024-01-25T01:49:01;29.90;;;0.80;;
3817;SDS011;1924;48.078;11.516;2024-01-25T01:51:29;29.90;;;0.80;;
3817;SDS011;1924;48.078;11.516;2024-01-25T01:53:57;30.07;;;0.80;;
3817;SDS011;1924;48.078;11.516;2024-01-25T01:56:26;29.87;;;0.80;;
3817;SDS011;1924;48.078;11.516;2024-01-25T01:58:54;29.90;;;0.80;;
3817;SDS011;1924;48.078;11.516;2024-01-25T02:01:23;29.90;;;0.80;;
3817;SDS011;1924;48.078;11.516;2024-01-25T02:03:50;30.07;;;0.80;;
3817;SDS011;1924;48.078;11.516;2024-01-25T02:06:17;30.00;;;0.80;;
3817;SDS011;1924;48.078;11.516;2024-01-25T02:08:44;29.90;;;0.80;;
3817;SDS011;1924;48.078;11.516;2024-01-25T02:11:12;30.00;;;0.80;;
3817;SDS011;1924;48.078;11.516;2024-01-25T02:13:40;29.97;;;0.80;;
3817;SDS011;1924;48.078;11.516;2024-01-25T02:16:07;29.80;;;0.80;;
3817;SDS011;1924;48.078;11.516;2024-01-25T02:18:34;29.80;;;0.80;;
3817;SDS011;1924;48.078;11.516;2024-01-25T02:21:01;29.80;;;0.80;;
3817;SDS011;1924;48.078;11.516;2024-01-25T02:23:29;29.90;;;0.80;;
3817;SDS011;1924;48.078;11.516;2024-01-25T02:25:56;30.00;;;0.80;;
3817;SDS011;1924;48.078;11.516;2024-01-25T02:28:23;29.80;;;0.80;;
3817;SDS011;1924;48.078;11.516;2024-01-25T02:30:49;29.73;;;0.80;;
3817;SDS011;1924;48.078;11.516;2024-01-25T02:33:16;29.80;;;0.80;;
3817;SDS011;1924;48.078;11.516;2024-01-25T02:35:43;29.90;;;0.80;;
3817;SDS011;1924;48.078;11.516;2024-01-25T02:38:09;29.90;;;0.80;;
3817;SDS011;1924;48.078;11.516;2024-01-25T02:40:37;29.90;;;0.80;;
3817;SDS011;1924;48.078;11.516;2024-01-25T02:43:04;30.00;;;0.80;;
3817;SDS011;1924;48.078;11.516;2024-01-25T02:45:31;29.77;;;0.80;;
3817;SDS011;1924;48.078;11.516;2024-01-25T02:47:58;30.00;;;0.80;;
3817;SDS011;1924;48.078;11.516;2024-01-25T02:50:27;29.90;;;0.80;;
3817;SDS011;1924;48.078;11.516;2024-01-25T05:01:39;29.80;;;0.80;;
3817;SDS011;1924;48.078;11.516;2024-01-25T05:04:06;29.60;;;0.80;;
3817;SDS011;1924;48.078;11.516;2024-01-25T05:06:33;29.57;;;0.83;;
3817;SDS011;1924;48.078;11.516;2024-01-25T05:09:01;29.60;;;0.80;;
3817;SDS011;1924;48.078;11.516;2024-01-25T05:11:27;29.60;;;0.80;;
3817;SDS011;1924;48.078;11.516;2024-01-25T05:13:54;29.50;;;0.80;;
3817;SDS011;1924;48.078;11.516;2024-01-25T05:16:21;29.60;;;0.80;;
3817;SDS011;1924;48.078;11.516;2024-01-25T05:18:49;29.30;;;0.80;;
3817;SDS011;1924;48.078;11.516;2024-01-25T05:21:16;29.50;;;0.80;;
3817;SDS011;1924;48.078;11.516;2024-01-25T05:23:43;29.50;;;0.80;;
3817;SDS011;1924;48.078;11.516;2024-01-25T05:26:09;29.53;;;0.80;;
3817;SDS011;1924;48.078;11.516;2024-01-25T05:28:36;29.60;;;0.80;;
3817;SDS011;1924;48.078;11.516;2024-01-25T05:31:03;29.47;;;0.80;;
3817;SDS011;1924;48.078;11.516;2024-01-25T05:33:30;29.40;;;0.80;;
3817;SDS011;1924;48.078;11.516;2024-01-25T05:35:58;29.40;;;0.80;;
3817;SDS011;1924;48.078;11.516;2024-01-25T05:38:25;29.50;;;0.80;;
3817;SDS011;1924;48.078;11.516;2024-01-25T05:40:52;29.40;;;0.80;;
3817;SDS011;1924;48.078;11.516;2024-01-25T05:43:19;29.60;;;0.80;;
3817;SDS011;1924;48.078;11.516;2024-01-25T05:45:45;29.60;;;0.80;;
3817;SDS011;1924;48.078;11.516;2024-01-25T05:48:12;29.33;;;0.80;;
3817;SDS011;1924;48.078;11.516;2024-01-25T05:50:39;29.60;;;0.80;;
3817;SDS011;1924;48.078;11.516;2024-01-25T05:53:07;29.47;;;0.80;;
3817;SDS011;1924;48.078;11.516;2024-01-25T05:55:34;29.60;;;0.80;;
3817;SDS011;1924;48.078;11.516;2024-01-25T05:58:01;29.60;;;0.80;;
3817;SDS011;1924;48.078;11.516;2024-01-25T06:00:28;29.60;;;0.80;;
3817;SDS011;1924;48.078;11.516;2024-01-25T06:02:54;29.60;;;0.80;;
3817;SDS011;1924;48.078;11.516;2024-01-25T06:05:21;29.47;;;0.80;;
3817;SDS011;1924;48.078;11.516;2024-01-25T06:07:48;29.60;;;0.80;;
3817;SDS011;1924;48.078;11.516;2024-01-25T06:10:16;29.60;;;0.83;;
3817;SDS011;1924;48.078;11.516;2024-01-25T06:12:43;29.43;;;0.80;;
3817;SDS011;1924;48.078;11.516;2024-01-25T06:15:10;29.30;;;0.80;;
3817;SDS011;1924;48.078;11.516;2024-01-25T06:17:37;29.40;;;0.80;;
3817;SDS011;1924;48.078;11.516;2024-01-25T06:20:04;29.50;;;0.80;;
3817;SDS011;1924;48.078;11.516;2024-01-25T06:22:31;29.40;;;0.80;;
3817;SDS011;1924;48.078;11.516;2024-01-25T06:24:58;29.50;;;0.80;;
3817;SDS011;1924;48.078;11.516;2024-01-25T06:27:26;29.47;;;0.80;;
3817;SDS011;1924;48.078;11.516;2024-01-25T06:29:52;29.60;;;0.80;;
3817;SDS011;1924;48.078;11.516;2024-01-25T06:32:19;29.30;;;0.80;;
3817;SDS011;1924;48.078;11.516;2024-01-25T06:34:46;29.30;;;0.80;;
3817;SDS011;1924;48.078;11.516;2024-01-25T06:37:12;29.50;;;0.80;;
3817;SDS011;1924;48.078;11.516;2024-01-25T06:39:40;29.40;;;0.80;;
3817;SDS011;1924;48.078;11.516;2024-01-25T06:42:07;29.50;;;0.80;;
3817;SDS011;1924;48.078;11.516;2024-01-25T06:44:35;29.57;;;0.80;;
3817;SDS011;1924;48.078;11.516;2024-01-25T06:47:02;29.50;;;0.80;;
3817;SDS011;1924;48.078;11.516;2024-01-25T06:49:29;29.50;;;0.87;;
3817;SDS011;1924;48.078;11.516;2024-01-25T06:51:56;29.40;;;0.80;;
3817;SDS011;1924;48.078;11.516;2024-01-25T06:54:23;29.40;;;0.80;;
3817;SDS011;1924;48.078;11.516;2024-01-25T06:56:49;29.40;;;0.80;;
3817;SDS011;1924;48.078;11.516;2024-01-25T06:59:16;29.30;;;0.80;;
3817;SDS011;1924;48.078;11.516;2024-01-25T07:01:44;29.50;;;0.80;;
3817;SDS011;1924;48.078;11.516;2024-01-25T07:04:11;29.40;;;0.80;;
3817;SDS011;1924;48.078;11.516;2024-01-25T07:06:38;29.40;;;0.80;;
3817;SDS011;1924;48.078;11.516;2024-01-25T07:09:05;29.50;;;0.80;;
3817;SDS011;1924;48.078;11.516;2024-01-25T07:11:32;29.30;;;0.80;;
3817;SDS011;1924;48.078;11.516;2024-01-25T07:13:58;29.23;;;0.80;;
3817;SDS011;1924;48.078;11.516;2024-01-25T07:16:25;29.40;;;0.87;;
3817;SDS011;1924;48.078;11.516;2024-01-25T07:18:53;29.30;;;0.80;;
3817;SDS011;1924;48.078;11.516;2024-01-25T07:21:20;29.50;;;0.80;;
3817;SDS011;1924;48.078;11.516;2024-01-25T07:23:47;29.40;;;0.80;;
3817;SDS011;1924;48.078;11.516;2024-01-25T07:26:18;29.30;;;0.80;;
3817;SDS011;1924;48.078;11.516;2024-01-25T07:28:45;29.30;;;0.80;;
3817;SDS011;1924;48.078;11.516;2024-01-25T07:31:12;29.40;;;0.80;;
3817;SDS011;1924;48.078;11.516;2024-01-25T07:33:38;29.13;;;0.80;;
3817;SDS011;1924;48.078;11.516;2024-01-25T07:36:07;29.40;;;0.80;;
3817;SDS011;1924;48.078;11.516;2024-01-25T07:38:33;29.30;;;0.80;;
3817;SDS011;1924;48.078;11.516;2024-01-25T07:41:00;29.27;;;0.80;;
3817;SDS011;1924;48.078;11.516;2024-01-25T07:43:27;29.20;;;0.80;;
3817;SDS011;1924;48.078;11.516;2024-01-25T07:45:54;29.43;;;0.80;;
3817;SDS011;1924;48.078;11.516;2024-01-25T07:48:20;29.30;;;0.80;;
3817;SDS011;1924;48.078;11.516;2024-01-25T07:50:47;29.30;;;0.80;;
3817;SDS011;1924;48.078;11.516;2024-01-25T07:53:15;29.33;;;0.80;;
3817;SDS011;1924;48.078;11.516;2024-01-25T07:55:42;29.30;;;0.80;;
3817;SDS011;1924;48.078;11.516;2024-01-25T07:58:10;29.30;;;0.80;;
3817;SDS011;1924;48.078;11.516;2024-01-25T08:00:37;29.40;;;0.80;;
3817;SDS011;1924;48.078;11.516;2024-01-25T08:03:03;29.30;;;0.80;;
3817;SDS011;1924;48.078;11.516;2024-01-25T08:05:30;29.37;;;0.80;;
3817;SDS011;1924;48.078;11.516;2024-01-25T08:07:57;29.30;;;0.80;;
3817;SDS011;1924;48.078;11.516;2024-01-25T08:10:25;29.40;;;0.80;;
3817;SDS011;1924;48.078;11.516;2024-01-25T08:12:52;29.50;;;0.80;;
3817;SDS011;1924;48.078;11.516;2024-01-25T08:15:19;29.50;;;0.87;;
3817;SDS011;1924;48.078;11.516;2024-01-25T08:17:45;29.47;;;0.80;;
3817;SDS011;1924;48.078;11.516;2024-01-25T08:20:12;29.40;;;0.80;;
3817;SDS011;1924;48.078;11.516;2024-01-25T08:22:40;29.40;;;0.80;;
3817;SDS011;1924;48.078;11.516;2024-01-25T08:25:07;29.30;;;0.80;;
3817;SDS011;1924;48.078;11.516;2024-01-25T08:27:36;29.60;;;0.80;;
3817;SDS011;1924;48.078;11.516;2024-01-25T08:30:03;29.60;;;0.80;;
3817;SDS011;1924;48.078;11.516;2024-01-25T08:32:30;29.20;;;0.80;;
3817;SDS011;1924;48.078;11.516;2024-01-25T08:34:57;29.40;;;0.80;;
3817;SDS011;1924;48.078;11.516;2024-01-25T08:37:23;29.60;;;0.80;;
3817;SDS011;1924;48.078;11.516;2024-01-25T08:39:50;29.70;;;0.80;;
3817;SDS011;1924;48.078;11.516;2024-01-25T08:42:17;29.37;;;0.80;;
3817;SDS011;1924;48.078;11.516;2024-01-25T08:44:46;29.70;;;0.80;;
3817;SDS011;1924;48.078;11.516;2024-01-25T08:47:14;29.50;;;0.80;;
3817;SDS011;1924;48.078;11.516;2024-01-25T08:49:41;29.80;;;0.80;;
3817;SDS011;1924;48.078;11.516;2024-01-25T08:52:08;29.57;;;0.80;;
3817;SDS011;1924;48.078;11.516;2024-01-25T08:54:35;29.70;;;0.80;;
3817;SDS011;1924;48.078;11.516;2024-01-25T08:57:02;29.87;;;0.80;;
3817;SDS011;1924;48.078;11.516;2024-01-25T08:59:29;29.80;;;0.80;;
3817;SDS011;1924;48.078;11.516;2024-01-25T09:01:59;29.80;;;0.80;;
3817;SDS011;1924;48.078;11.516;2024-01-25T09:04:25;29.47;;;0.80;;
3817;SDS011;1924;48.078;11.516;2024-01-25T09:06:52;29.60;;;0.80;;
3817;SDS011;1924;48.078;11.516;2024-01-25T09:09:19;29.80;;;0.90;;
3817;SDS011;1924;48.078;11.516;2024-01-25T09:11:46;29.80;;;0.80;;
3817;SDS011;1924;48.078;11.516;2024-01-25T09:14:13;29.77;;;0.80;;
3817;SDS011;1924;48.078;11.516;2024-01-25T09:16:39;29.70;;;0.80;;
3817;SDS011;1924;48.078;11.516;2024-01-25T09:19:07;29.77;;;0.80;;
3817;SDS011;1924;48.078;11.516;2024-01-25T09:21:37;29.63;;;0.80;;
3817;SDS011;1924;48.078;11.516;2024-01-25T09:24:04;29.73;;;0.80;;
3817;SDS011;1924;48.078;11.516;2024-01-25T09:26:32;29.70;;;0.80;;
3817;SDS011;1924;48.078;11.516;2024-01-25T09:29:01;29.70;;;0.80;;
3817;SDS011;1924;48.078;11.516;2024-01-25T09:31:28;29.60;;;0.80;;
3817;SDS011;1924;48.078;11.516;2024-01-25T09:33:55;29.70;;;0.80;;
3817;SDS011;1924;48.078;11.516;2024-01-25T09:36:23;29.57;;;0.80;;
3817;SDS011;1924;48.078;11.516;2024-01-25T09:38:49;29.80;;;0.80;;
3817;SDS011;1924;48.078;11.516;2024-01-25T09:41:16;29.70;;;0.80;;
3817;SDS011;1924;48.078;11.516;2024-01-25T09:43:43;29.57;;;0.80;;
3817;SDS011;1924;48.078;11.516;2024-01-25T09:46:10;29.60;;;0.80;;
3817;SDS011;1924;48.078;11.516;2024-01-25T09:48:40;29.47;;;0.80;;
3817;SDS011;1924;48.078;11.516;2024-01-25T09:51:09;29.60;;;0.87;;
3817;SDS011;1924;48.078;11.516;2024-01-25T09:53:39;29.80;;;0.80;;
3817;SDS011;1924;48.078;11.516;2024-01-25T09:56:07;29.90;;;0.80;;
3817;SDS011;1924;48.078;11.516;2024-01-25T09:58:38;29.77;;;0.80;;
3817;SDS011;1924;48.078;11.516;2024-01-25T10:01:10;29.60;;;0.80;;
3817;SDS011;1924;48.078;11.516;2024-01-25T10:03:38;29.77;;;0.80;;
3817;SDS011;1924;48.078;11.516;2024-01-25T10:06:06;29.77;;;0.80;;
3817;SDS011;1924;48.078;11.516;2024-01-25T10:08:33;29.67;;;0.80;;
3817;SDS011;1924;48.078;11.516;2024-01-25T10:11:01;29.97;;;0.80;;
3817;SDS011;1924;48.078;11.516;2024-01-25T10:13:28;29.90;;;0.90;;
3817;SDS011;1924;48.078;11.516;2024-01-25T10:15:55;29.87;;;0.80;;
3817;SDS011;1924;48.078;11.516;2024-01-25T10:18:22;29.73;;;0.80;;
3817;SDS011;1924;48.078;11.516;2024-01-25T10:20:49;29.70;;;0.80;;
3817;SDS011;1924;48.078;11.516;2024-01-25T10:23:16;29.90;;;0.80;;
3817;SDS011;1924;48.078;11.516;2024-01-25T10:25:42;29.80;;;0.80;;
3817;SDS011;1924;48.078;11.516;2024-01-25T10:28:11;29.90;;;0.90;;
3817;SDS011;1924;48.078;11.516;2024-01-25T10:30:38;29.80;;;0.80;;
3817;SDS011;1924;48.078;11.516;2024-01-25T10:33:05;29.80;;;0.90;;
3817;SDS011;1924;48.078;11.516;2024-01-25T10:35:33;29.67;;;0.80;;
3817;SDS011;1924;48.078;11.516;2024-01-25T10:38:02;29.70;;;0.80;;
3817;SDS011;1924;48.078;11.516;2024-01-25T10:40:29;29.60;;;0.80;;
3817;SDS011;1924;48.078;11.516;2024-01-25T10:42:56;29.50;;;0.80;;
3817;SDS011;1924;48.078;11.516;2024-01-25T10:45:24;29.70;;;0.80;;
3817;SDS011;1924;48.078;11.516;2024-01-25T10:47:51;29.90;;;0.80;;
3817;SDS011;1924;48.078;11.516;2024-01-25T10:50:18;29.80;;;0.80;;
3817;SDS011;1924;48.078;11.516;2024-01-25T10:52:44;29.80;;;0.90;;
3817;SDS011;1924;48.078;11.516;2024-01-25T10:55:12;29.80;;;0.80;;
3817;SDS011;1924;48.078;11.516;2024-01-25T10:57:43;29.80;;;0.80;;
3817;SDS011;1924;48.078;11.516;2024-01-25T11:00:11;29.63;;;0.80;;
3817;SDS011;1924;48.078;11.516;2024-01-25T11:02:41;30.00;;;0.80;;
3817;SDS011;1924;48.078;11.516;2024-01-25T11:05:08;30.20;;;0.90;;
3817;SDS011;1924;48.078;11.516;2024-01-25T11:07:43;30.00;;;0.80;;
3817;SDS011;1924;48.078;11.516;2024-01-25T11:10:14;30.30;;;0.80;;
3817;SDS011;1924;48.078;11.516;2024-01-25T11:12:49;30.13;;;0.80;;
3817;SDS011;1924;48.078;11.516;2024-01-25T11:15:18;30.40;;;0.80;;
3817;SDS011;1924;48.078;11.516;2024-01-25T11:17:56;30.40;;;0.80;;
3817;SDS011;1924;48.078;11.516;2024-01-25T11:20:23;30.30;;;0.80;;
3817;SDS011;1924;48.078;11.516;2024-01-25T11:22:55;30.27;;;0.80;;
3817;SDS011;1924;48.078;11.516;2024-01-25T11:25:24;30.33;;;0.80;;
3817;SDS011;1924;48.078;11.516;2024-01-25T11:27:53;30.40;;;0.80;;
3817;SDS011;1924;48.078;11.516;2024-01-25T11:30:20;30.40;;;0.80;;
3817;SDS011;1924;48.078;11.516;2024-01-25T11:32:47;30.50;;;0.80;;
3817;SDS011;1924;48.078;11.516;2024-01-25T11:35:16;30.60;;;0.80;;
3817;SDS011;1924;48.078;11.516;2024-01-25T11:37:43;30.43;;;0.80;;
3817;SDS011;1924;48.078;11.516;2024-01-25T11:40:10;30.40;;;0.80;;
3817;SDS011;1924;48.078;11.516;2024-01-25T11:42:38;30.70;;;0.80;;
3817;SDS011;1924;48.078;11.516;2024-01-25T11:45:05;30.40;;;0.80;;
3817;SDS011;1924;48.078;11.516;2024-01-25T11:47:33;30.47;;;0.80;;
3817;SDS011;1924;48.078;11.516;2024-01-25T11:50:00;30.40;;;0.80;;
3817;SDS011;1924;48.078;11.516;2024-01-25T11:52:28;30.40;;;0.80;;
3817;SDS011;1924;48.078;11.516;2024-01-25T11:54:57;30.50;;;0.80;;
3817;SDS011;1924;48.078;11.516;2024-01-25T11:57:24;30.47;;;0.80;;
3817;SDS011;1924;48.078;11.516;2024-01-25T11:59:51;30.50;;;0.80;;
3817;SDS011;1924;48.078;11.516;2024-01-25T12:02:18;30.37;;;0.80;;
3817;SDS011;1924;48.078;11.516;2024-01-25T12:04:46;30.50;;;0.80;;
3817;SDS011;1924;48.078;11.516;2024-01-25T12:07:12;30.27;;;0.80;;
3817;SDS011;1924;48.078;11.516;2024-01-25T12:09:41;30.50;;;0.80;;
3817;SDS011;1924;48.078;11.516;2024-01-25T12:12:09;30.50;;;0.80;;
3817;SDS011;1924;48.078;11.516;2024-01-25T12:14:37;30.20;;;0.80;;
3817;SDS011;1924;48.078;11.516;2024-01-25T12:17:06;30.47;;;0.80;;
3817;SDS011;1924;48.078;11.516;2024-01-25T12:19:33;30.60;;;0.80;;
3817;SDS011;1924;48.078;11.516;2024-01-25T12:22:00;30.63;;;0.80;;
3817;SDS011;1924;48.078;11.516;2024-01-25T12:24:27;30.50;;;0.80;;
3817;SDS011;1924;48.078;11.516;2024-01-25T12:26:55;30.50;;;0.80;;
3817;SDS011;1924;48.078;11.516;2024-01-25T12:29:22;30.47;;;0.80;;
3817;SDS011;1924;48.078;11.516;2024-01-25T12:31:49;30.20;;;0.80;;
3817;SDS011;1924;48.078;11.516;2024-01-25T12:34:16;30.17;;;0.80;;
3817;SDS011;1924;48.078;11.516;2024-01-25T12:36:43;30.07;;;0.80;;
3817;SDS011;1924;48.078;11.516;2024-01-25T12:39:10;30.00;;;0.80;;
3817;SDS011;1924;48.078;11.516;2024-01-25T12:41:39;30.20;;;0.80;;
3817;SDS011;1924;48.078;11.516;2024-01-25T12:44:07;30.20;;;0.80;;
3817;SDS011;1924;48.078;11.516;2024-01-25T12:46:34;30.30;;;0.80;;
3817;SDS011;1924;48.078;11.516;2024-01-25T12:49:01;30.47;;;0.80;;
3817;SDS011;1924;48.078;11.516;2024-01-25T12:51:29;30.40;;;0.80;;
3817;SDS011;1924;48.078;11.516;2024-01-25T12:53:56;30.50;;;0.80;;
3817;SDS011;1924;48.078;11.516;2024-01-25T12:56:23;30.30;;;0.80;;
3817;SDS011;1924;48.078;11.516;2024-01-25T12:58:50;30.40;;;0.90;;
3817;SDS011;1924;48.078;11.516;2024-01-25T13:01:18;30.50;;;0.80;;
3817;SDS011;1924;48.078;11.516;2024-01-25T13:03:45;30.37;;;0.80;;
3817;SDS011;1924;48.078;11.516;2024-01-25T13:06:13;30.30;;;0.80;;
3817;SDS011;1924;48.078;11.516;2024-01-25T13:08:40;30.40;;;0.80;;
3817;SDS011;1924;48.078;11.516;2024-01-25T13:11:07;30.20;;;0.80;;
3817;SDS011;1924;48.078;11.516;2024-01-25T13:13:34;30.20;;;0.80;;
3817;SDS011;1924;48.078;11.516;2024-01-25T13:16:00;30.23;;;0.80;;
3817;SDS011;1924;48.078;11.516;2024-01-25T13:18:29;30.47;;;0.80;;
3817;SDS011;1924;48.078;11.516;2024-01-25T13:20:56;30.10;;;0.80;;
3817;SDS011;1924;48.078;11.516;2024-01-25T13:23:22;30.30;;;0.80;;
3817;SDS011;1924;48.078;11.516;2024-01-25T13:25:49;30.30;;;0.80;;
3817;SDS011;1924;48.078;11.516;2024-01-25T13:28:16;30.30;;;0.80;;
3817;SDS011;1924;48.078;11.516;2024-01-25T13:30:42;30.50;;;0.80;;
3817;SDS011;1924;48.078;11.516;2024-01-25T13:33:09;30.57;;;0.80;;
3817;SDS011;1924;48.078;11.516;2024-01-25T13:35:37;30.60;;;0.80;;
3817;SDS011;1924;48.078;11.516;2024-01-25T13:38:04;30.70;;;0.80;;
3817;SDS011;1924;48.078;11.516;2024-01-25T13:40:31;30.70;;;0.80;;
3817;SDS011;1924;48.078;11.516;2024-01-25T13:42:58;30.77;;;0.80;;
3817;SDS011;1924;48.078;11.516;2024-01-25T13:45:24;30.60;;;0.80;;
3817;SDS011;1924;48.078;11.516;2024-01-25T13:47:51;30.60;;;0.80;;
3817;SDS011;1924;48.078;11.516;2024-01-25T13:50:18;30.60;;;0.80;;
3817;SDS011;1924;48.078;11.516;2024-01-25T13:52:46;30.50;;;0.80;;
3817;SDS011;1924;48.078;11.516;2024-01-25T13:55:12;30.17;;;0.80;;
3817;SDS011;1924;48.078;11.516;2024-01-25T13:57:39;30.20;;;0.80;;
3817;SDS011;1924;48.078;11.516;2024-01-25T14:00:06;30.30;;;0.80;;
3817;SDS011;1924;48.078;11.516;2024-01-25T14:02:34;30.23;;;0.80;;
3817;SDS011;1924;48.078;11.516;2024-01-25T14:05:01;30.30;;;0.80;;
3817;SDS011;1924;48.078;11.516;2024-01-25T14:07:27;30.40;;;0.80;;
3817;SDS011;1924;48.078;11.516;2024-01-25T14:09:56;30.40;;;0.80;;
3817;SDS011;1924;48.078;11.516;2024-01-25T14:12:22;30.20;;;0.80;;
3817;SDS011;1924;48.078;11.516;2024-01-25T14:14:49;30.40;;;0.80;;
3817;SDS011;1924;48.078;11.516;2024-01-25T14:17:16;30.27;;;0.80;;
3817;SDS011;1924;48.078;11.516;2024-01-25T14:19:42;30.40;;;0.80;;
3817;SDS011;1924;48.078;11.516;2024-01-25T14:22:09;30.20;;;0.80;;
3817;SDS011;1924;48.078;11.516;2024-01-25T14:24:36;30.33;;;0.80;;
3817;SDS011;1924;48.078;11.516;2024-01-25T14:27:05;30.27;;;0.80;;
3817;SDS011;1924;48.078;11.516;2024-01-25T14:29:31;30.40;;;0.90;;
3817;SDS011;1924;48.078;11.516;2024-01-25T14:31:58;30.30;;;0.80;;
3817;SDS011;1924;48.078;11.516;2024-01-25T14:34:25;30.30;;;0.80;;
3817;SDS011;1924;48.078;11.516;2024-01-25T14:36:52;30.20;;;0.80;;
3817;SDS011;1924;48.078;11.516;2024-01-25T14:39:19;30.20;;;0.80;;
3817;SDS011;1924;48.078;11.516;2024-01-25T14:41:46;30.10;;;0.80;;
3817;SDS011;1924;48.078;11.516;2024-01-25T14:44:14;30.27;;;0.80;;
3817;SDS011;1924;48.078;11.516;2024-01-25T14:46:41;30.07;;;0.80;;
3817;SDS011;1924;48.078;11.516;2024-01-25T14:49:08;30.17;;;0.80;;
3817;SDS011;1924;48.078;11.516;2024-01-25T14:51:35;30.30;;;0.80;;
3817;SDS011;1924;48.078;11.516;2024-01-25T14:54:01;30.20;;;0.80;;
3817;SDS011;1924;48.078;11.516;2024-01-25T14:56:28;30.27;;;0.80;;
3817;SDS011;1924;48.078;11.516;2024-01-25T14:58:55;30.30;;;0.80;;
3817;SDS011;1924;48.078;11.516;2024-01-25T15:01:23;30.27;;;0.80;;
3817;SDS011;1924;48.078;11.516;2024-01-25T15:03:53;30.27;;;0.80;;
3817;SDS011;1924;48.078;11.516;2024-01-25T15:06:20;30.20;;;0.80;;
3817;SDS011;1924;48.078;11.516;2024-01-25T15:08:47;30.30;;;0.83;;
3817;SDS011;1924;48.078;11.516;2024-01-25T15:11:14;30.40;;;0.80;;
3817;SDS011;1924;48.078;11.516;2024-01-25T15:13:40;30.20;;;0.80;;
3817;SDS011;1924;48.078;11.516;2024-01-25T15:16:07;30.37;;;0.90;;
3817;SDS011;1924;48.078;11.516;2024-01-25T15:18:36;30.10;;;0.80;;
3817;SDS011;1924;48.078;11.516;2024-01-25T15:21:03;30.00;;;0.80;;
3817;SDS011;1924;48.078;11.516;2024-01-25T15:23:30;30.07;;;0.80;;
3817;SDS011;1924;48.078;11.516;2024-01-25T15:25:57;30.10;;;0.80;;
3817;SDS011;1924;48.078;11.516;2024-01-25T15:28:24;30.10;;;0.80;;
3817;SDS011;1924;48.078;11.516;2024-01-25T15:30:50;30.00;;;0.80;;
3817;SDS011;1924;48.078;11.516;2024-01-25T15:33:17;30.10;;;0.80;;
3817;SDS011;1924;48.078;11.516;2024-01-25T15:35:45;30.00;;;0.80;;
3817;SDS011;1924;48.078;11.516;2024-01-25T15:38:12;30.00;;;0.80;;
3817;SDS011;1924;48.078;11.516;2024-01-25T15:40:42;29.90;;;0.80;;
3817;SDS011;1924;48.078;11.516;2024-01-25T15:43:09;29.90;;;0.80;;
3817;SDS011;1924;48.078;11.516;2024-01-25T15:45:36;29.90;;;0.80;;
3817;SDS011;1924;48.078;11.516;2024-01-25T15:48:03;30.00;;;0.80;;
3817;SDS011;1924;48.078;11.516;2024-01-25T15:50:30;30.00;;;0.80;;
3817;SDS011;1924;48.078;11.516;2024-01-25T15:52:58;29.77;;;0.80;;
3817;SDS011;1924;48.078;11.516;2024-01-25T15:55:25;29.80;;;0.80;;
3817;SDS011;1924;48.078;11.516;2024-01-25T15:57:52;29.70;;;0.80;;
3817;SDS011;1924;48.078;11.516;2024-01-25T16:00:19;29.90;;;0.80;;
3817;SDS011;1924;48.078;11.516;2024-01-25T16:02:46;29.80;;;0.80;;
3817;SDS011;1924;48.078;11.516;2024-01-25T16:05:12;29.70;;;0.80;;
3817;SDS011;1924;48.078;11.516;2024-01-25T16:07:39;29.70;;;0.80;;
3817;SDS011;1924;48.078;11.516;2024-01-25T16:10:09;29.87;;;0.80;;
3817;SDS011;1924;48.078;11.516;2024-01-25T16:12:35;29.60;;;0.80;;
3817;SDS011;1924;48.078;11.516;2024-01-25T16:15:03;29.77;;;0.80;;
3817;SDS011;1924;48.078;11.516;2024-01-25T16:17:30;29.77;;;0.80;;
3817;SDS011;1924;48.078;11.516;2024-01-25T16:19:56;29.80;;;0.80;;
3817;SDS011;1924;48.078;11.516;2024-01-25T16:22:23;29.80;;;0.80;;
3817;SDS011;1924;48.078;11.516;2024-01-25T16:24:50;29.70;;;0.80;;
3817;SDS011;1924;48.078;11.516;2024-01-25T16:27:18;29.70;;;0.80;;
3817;SDS011;1924;48.078;11.516;2024-01-25T16:29:45;29.80;;;0.80;;
3817;SDS011;1924;48.078;11.516;2024-01-25T16:32:11;29.60;;;0.80;;
3817;SDS011;1924;48.078;11.516;2024-01-25T16:34:38;29.77;;;0.80;;
3817;SDS011;1924;48.078;11.516;2024-01-25T16:37:05;29.80;;;0.80;;
3817;SDS011;1924;48.078;11.516;2024-01-25T16:39:32;29.70;;;0.80;;
3817;SDS011;1924;48.078;11.516;2024-01-25T16:41:58;29.60;;;0.80;;
3817;SDS011;1924;48.078;11.516;2024-01-25T16:44:26;29.60;;;0.80;;
3817;SDS011;1924;48.078;11.516;2024-01-25T16:46:53;29.83;;;0.80;;
3817;SDS011;1924;48.078;11.516;2024-01-25T16:49:20;29.80;;;0.80;;
3817;SDS011;1924;48.078;11.516;2024-01-25T16:51:47;29.67;;;0.80;;
3817;SDS011;1924;48.078;11.516;2024-01-25T16:54:14;29.53;;;0.80;;
3817;SDS011;1924;48.078;11.516;2024-01-25T16:56:40;29.60;;;0.80;;